sensor_id;sensor_type;location;lat;lon;timestamp;P1;durP1;ratioP1;P2;durP2;ratioP2
28455;SDS011;15682;56.742;38.866;2022-09-21T00:00:15;10.4;;;5.1;;
28455;SDS011;15682;56.742;38.866;2022-09-21T00:02:15;13.4;;;5.4;;
28455;SDS011;15682;56.742;38.866;2022-09-21T00:04:15;8.0;;;5.1;;
28455;SDS011;15682;56.742;38.866;2022-09-21T00:06:16;11.5;;;5.2;;
28455;SDS011;15682;56.742;38.866;2022-09-21T00:08:15;11.7;;;5.1;;
28455;SDS011;15682;56.742;38.866;2022-09-21T00:10:15;9.5;;;4.8;;
28455;SDS011;15682;56.742;38.866;2022-09-21T00:12:15;9.8;;;4.9;;
28455;SDS011;15682;56.742;38.866;2022-09-21T00:14:15;8.5;;;4.7;;
28455;SDS011;15682;56.742;38.866;2022-09-21T00:16:16;11.2;;;5.2;;
28455;SDS011;15682;56.742;38.866;2022-09-21T00:18:16;11.5;;;5.6;;
28455;SDS011;15682;56.742;38.866;2022-09-21T00:20:16;8.5;;;5.0;;
28455;SDS011;15682;56.742;38.866;2022-09-21T00:22:16;7.2;;;4.3;;
28455;SDS011;15682;56.742;38.866;2022-09-21T00:24:16;6.9;;;4.3;;
28455;SDS011;15682;56.742;38.866;2022-09-21T00:26:17;10.7;;;5.0;;
28455;SDS011;15682;56.742;38.866;2022-09-21T00:28:16;11.5;;;4.6;;
28455;SDS011;15682;56.742;38.866;2022-09-21T00:30:17;9.9;;;4.6;;
28455;SDS011;15682;56.742;38.866;2022-09-21T00:32:16;10.7;;;4.7;;
28455;SDS011;15682;56.742;38.866;2022-09-21T00:34:16;12.6;;;5.0;;
28455;SDS011;15682;56.742;38.866;2022-09-21T00:36:17;11.7;;;5.6;;
28455;SDS011;15682;56.742;38.866;2022-09-21T00:38:17;9.7;;;5.5;;
28455;SDS011;15682;56.742;38.866;2022-09-21T00:40:17;12.6;;;5.2;;
28455;SDS011;15682;56.742;38.866;2022-09-21T00:42:17;8.2;;;5.0;;
28455;SDS011;15682;56.742;38.866;2022-09-21T00:44:19;11.8;;;5.2;;
28455;SDS011;15682;56.742;38.866;2022-09-21T00:46:19;13.9;;;5.1;;
28455;SDS011;15682;56.742;38.866;2022-09-21T00:48:17;15.6;;;6.1;;
28455;SDS011;15682;56.742;38.866;2022-09-21T00:50:18;11.6;;;5.4;;
28455;SDS011;15682;56.742;38.866;2022-09-21T00:52:17;15.0;;;5.5;;
28455;SDS011;15682;56.742;38.866;2022-09-21T00:54:19;13.8;;;5.6;;
28455;SDS011;15682;56.742;38.866;2022-09-21T00:56:17;10.9;;;4.9;;
28455;SDS011;15682;56.742;38.866;2022-09-21T00:58:18;12.5;;;5.2;;
28455;SDS011;15682;56.742;38.866;2022-09-21T01:00:18;10.8;;;5.2;;
28455;SDS011;15682;56.742;38.866;2022-09-21T01:02:18;12.2;;;4.8;;
28455;SDS011;15682;56.742;38.866;2022-09-21T01:04:18;12.8;;;5.2;;
28455;SDS011;15682;56.742;38.866;2022-09-21T01:06:18;11.1;;;4.9;;
28455;SDS011;15682;56.742;38.866;2022-09-21T01:08:18;9.7;;;4.6;;
28455;SDS011;15682;56.742;38.866;2022-09-21T01:10:18;9.3;;;4.8;;
28455;SDS011;15682;56.742;38.866;2022-09-21T01:12:23;15.6;;;5.6;;
28455;SDS011;15682;56.742;38.866;2022-09-21T01:14:22;23.1;;;7.7;;
28455;SDS011;15682;56.742;38.866;2022-09-21T01:16:19;34.3;;;9.5;;
28455;SDS011;15682;56.742;38.866;2022-09-21T01:18:19;25.0;;;7.6;;
28455;SDS011;15682;56.742;38.866;2022-09-21T01:20:31;16.8;;;6.0;;
28455;SDS011;15682;56.742;38.866;2022-09-21T01:22:21;12.2;;;4.8;;
28455;SDS011;15682;56.742;38.866;2022-09-21T01:24:21;13.8;;;4.8;;
28455;SDS011;15682;56.742;38.866;2022-09-21T01:26:20;10.1;;;4.1;;
28455;SDS011;15682;56.742;38.866;2022-09-21T01:28:22;12.8;;;4.3;;
28455;SDS011;15682;56.742;38.866;2022-09-21T01:30:19;16.7;;;4.2;;
28455;SDS011;15682;56.742;38.866;2022-09-21T01:32:21;25.9;;;4.3;;
28455;SDS011;15682;56.742;38.866;2022-09-21T01:34:21;27.3;;;4.3;;
28455;SDS011;15682;56.742;38.866;2022-09-21T01:36:19;27.8;;;3.7;;
28455;SDS011;15682;56.742;38.866;2022-09-21T01:38:20;35.8;;;4.3;;
28455;SDS011;15682;56.742;38.866;2022-09-21T01:40:20;67.8;;;4.4;;
28455;SDS011;15682;56.742;38.866;2022-09-21T01:42:19;76.2;;;4.7;;
28455;SDS011;15682;56.742;38.866;2022-09-21T01:44:20;105.9;;;5.5;;
28455;SDS011;15682;56.742;38.866;2022-09-21T01:46:20;91.4;;;4.9;;
28455;SDS011;15682;56.742;38.866;2022-09-21T01:48:20;58.0;;;4.6;;
28455;SDS011;15682;56.742;38.866;2022-09-21T01:50:19;61.0;;;4.7;;
28455;SDS011;15682;56.742;38.866;2022-09-21T01:52:20;45.1;;;4.2;;
28455;SDS011;15682;56.742;38.866;2022-09-21T01:54:20;43.6;;;4.3;;
28455;SDS011;15682;56.742;38.866;2022-09-21T01:56:20;31.3;;;4.4;;
28455;SDS011;15682;56.742;38.866;2022-09-21T01:58:21;51.8;;;4.5;;
28455;SDS011;15682;56.742;38.866;2022-09-21T02:00:20;100.1;;;5.7;;
28455;SDS011;15682;56.742;38.866;2022-09-21T02:02:21;26.7;;;5.0;;
28455;SDS011;15682;56.742;38.866;2022-09-21T02:04:20;39.7;;;6.5;;
28455;SDS011;15682;56.742;38.866;2022-09-21T02:06:20;20.6;;;5.4;;
28455;SDS011;15682;56.742;38.866;2022-09-21T02:08:20;11.3;;;3.9;;
28455;SDS011;15682;56.742;38.866;2022-09-21T02:10:21;15.4;;;4.4;;
28455;SDS011;15682;56.742;38.866;2022-09-21T02:12:20;7.3;;;4.2;;
28455;SDS011;15682;56.742;38.866;2022-09-21T02:14:21;11.7;;;4.1;;
28455;SDS011;15682;56.742;38.866;2022-09-21T02:16:30;11.7;;;4.1;;
28455;SDS011;15682;56.742;38.866;2022-09-21T02:18:24;30.7;;;4.4;;
28455;SDS011;15682;56.742;38.866;2022-09-21T02:20:22;9.1;;;3.9;;
28455;SDS011;15682;56.742;38.866;2022-09-21T02:22:23;8.4;;;4.1;;
28455;SDS011;15682;56.742;38.866;2022-09-21T02:24:23;6.7;;;3.6;;
28455;SDS011;15682;56.742;38.866;2022-09-21T02:26:21;6.2;;;3.7;;
28455;SDS011;15682;56.742;38.866;2022-09-21T02:28:24;13.6;;;3.7;;
28455;SDS011;15682;56.742;38.866;2022-09-21T02:30:21;4.8;;;3.5;;
28455;SDS011;15682;56.742;38.866;2022-09-21T02:32:23;11.0;;;3.6;;
28455;SDS011;15682;56.742;38.866;2022-09-21T02:34:23;7.6;;;4.0;;
28455;SDS011;15682;56.742;38.866;2022-09-21T02:36:23;9.0;;;4.2;;
28455;SDS011;15682;56.742;38.866;2022-09-21T02:38:21;9.3;;;4.3;;
28455;SDS011;15682;56.742;38.866;2022-09-21T02:40:22;10.4;;;4.8;;
28455;SDS011;15682;56.742;38.866;2022-09-21T02:42:22;10.2;;;4.3;;
28455;SDS011;15682;56.742;38.866;2022-09-21T02:44:22;7.5;;;4.1;;
28455;SDS011;15682;56.742;38.866;2022-09-21T02:46:22;7.8;;;4.5;;
28455;SDS011;15682;56.742;38.866;2022-09-21T02:48:23;6.7;;;4.6;;
28455;SDS011;15682;56.742;38.866;2022-09-21T02:50:22;7.5;;;4.2;;
28455;SDS011;15682;56.742;38.866;2022-09-21T02:52:21;12.8;;;4.8;;
28455;SDS011;15682;56.742;38.866;2022-09-21T02:54:23;6.7;;;4.5;;
28455;SDS011;15682;56.742;38.866;2022-09-21T02:56:21;10.1;;;4.8;;
28455;SDS011;15682;56.742;38.866;2022-09-21T02:58:22;13.3;;;5.8;;
28455;SDS011;15682;56.742;38.866;2022-09-21T03:00:22;25.6;;;7.0;;
28455;SDS011;15682;56.742;38.866;2022-09-21T03:02:22;19.5;;;6.4;;
28455;SDS011;15682;56.742;38.866;2022-09-21T03:04:22;16.5;;;5.9;;
28455;SDS011;15682;56.742;38.866;2022-09-21T03:06:22;23.6;;;6.1;;
28455;SDS011;15682;56.742;38.866;2022-09-21T03:08:22;19.4;;;5.6;;
28455;SDS011;15682;56.742;38.866;2022-09-21T03:10:22;20.9;;;6.5;;
28455;SDS011;15682;56.742;38.866;2022-09-21T03:12:22;16.0;;;6.5;;
28455;SDS011;15682;56.742;38.866;2022-09-21T03:14:22;18.4;;;6.5;;
28455;SDS011;15682;56.742;38.866;2022-09-21T03:16:22;18.9;;;6.7;;
28455;SDS011;15682;56.742;38.866;2022-09-21T03:18:22;26.7;;;7.4;;
28455;SDS011;15682;56.742;38.866;2022-09-21T03:20:22;31.8;;;7.7;;
28455;SDS011;15682;56.742;38.866;2022-09-21T03:22:22;35.1;;;8.7;;
28455;SDS011;15682;56.742;38.866;2022-09-21T03:24:23;23.3;;;7.5;;
28455;SDS011;15682;56.742;38.866;2022-09-21T03:26:23;29.9;;;6.4;;
28455;SDS011;15682;56.742;38.866;2022-09-21T03:28:23;49.2;;;6.7;;
28455;SDS011;15682;56.742;38.866;2022-09-21T03:30:23;29.6;;;6.0;;
28455;SDS011;15682;56.742;38.866;2022-09-21T03:32:23;34.5;;;5.4;;
28455;SDS011;15682;56.742;38.866;2022-09-21T03:34:23;30.4;;;5.4;;
28455;SDS011;15682;56.742;38.866;2022-09-21T03:36:23;30.5;;;5.1;;
28455;SDS011;15682;56.742;38.866;2022-09-21T03:38:23;36.4;;;5.2;;
28455;SDS011;15682;56.742;38.866;2022-09-21T03:40:23;27.6;;;4.8;;
28455;SDS011;15682;56.742;38.866;2022-09-21T03:42:23;35.7;;;5.3;;
28455;SDS011;15682;56.742;38.866;2022-09-21T03:44:24;44.2;;;4.5;;
28455;SDS011;15682;56.742;38.866;2022-09-21T03:46:23;44.9;;;4.5;;
28455;SDS011;15682;56.742;38.866;2022-09-21T03:48:23;39.6;;;4.4;;
28455;SDS011;15682;56.742;38.866;2022-09-21T03:50:24;39.8;;;4.9;;
28455;SDS011;15682;56.742;38.866;2022-09-21T03:52:24;70.9;;;4.9;;
28455;SDS011;15682;56.742;38.866;2022-09-21T03:54:24;76.4;;;5.5;;
28455;SDS011;15682;56.742;38.866;2022-09-21T03:56:24;40.1;;;5.1;;
28455;SDS011;15682;56.742;38.866;2022-09-21T03:58:24;33.8;;;5.7;;
28455;SDS011;15682;56.742;38.866;2022-09-21T04:00:24;54.4;;;5.2;;
28455;SDS011;15682;56.742;38.866;2022-09-21T04:02:24;63.1;;;5.5;;
28455;SDS011;15682;56.742;38.866;2022-09-21T04:04:24;35.2;;;5.7;;
28455;SDS011;15682;56.742;38.866;2022-09-21T04:06:24;41.3;;;5.8;;
28455;SDS011;15682;56.742;38.866;2022-09-21T04:08:24;42.9;;;5.6;;
28455;SDS011;15682;56.742;38.866;2022-09-21T04:10:24;57.4;;;6.2;;
28455;SDS011;15682;56.742;38.866;2022-09-21T04:12:24;42.9;;;5.7;;
28455;SDS011;15682;56.742;38.866;2022-09-21T04:14:24;54.4;;;7.0;;
28455;SDS011;15682;56.742;38.866;2022-09-21T04:16:24;33.3;;;5.8;;
28455;SDS011;15682;56.742;38.866;2022-09-21T04:18:24;33.5;;;5.3;;
28455;SDS011;15682;56.742;38.866;2022-09-21T04:20:25;34.0;;;5.8;;
28455;SDS011;15682;56.742;38.866;2022-09-21T04:22:25;30.9;;;5.6;;
28455;SDS011;15682;56.742;38.866;2022-09-21T04:24:25;33.9;;;6.0;;
28455;SDS011;15682;56.742;38.866;2022-09-21T04:26:26;34.1;;;6.7;;
28455;SDS011;15682;56.742;38.866;2022-09-21T04:28:25;31.2;;;7.4;;
28455;SDS011;15682;56.742;38.866;2022-09-21T04:30:25;52.1;;;7.1;;
28455;SDS011;15682;56.742;38.866;2022-09-21T04:32:25;29.1;;;6.4;;
28455;SDS011;15682;56.742;38.866;2022-09-21T04:34:25;29.1;;;7.2;;
28455;SDS011;15682;56.742;38.866;2022-09-21T04:36:26;37.1;;;7.1;;
28455;SDS011;15682;56.742;38.866;2022-09-21T04:38:25;32.1;;;6.4;;
28455;SDS011;15682;56.742;38.866;2022-09-21T04:40:25;23.1;;;6.3;;
28455;SDS011;15682;56.742;38.866;2022-09-21T04:42:25;24.2;;;8.2;;
28455;SDS011;15682;56.742;38.866;2022-09-21T04:44:25;31.8;;;6.7;;
28455;SDS011;15682;56.742;38.866;2022-09-21T04:46:25;20.3;;;6.3;;
28455;SDS011;15682;56.742;38.866;2022-09-21T04:48:26;23.1;;;6.9;;
28455;SDS011;15682;56.742;38.866;2022-09-21T04:50:26;26.6;;;6.4;;
28455;SDS011;15682;56.742;38.866;2022-09-21T04:52:26;42.2;;;7.2;;
28455;SDS011;15682;56.742;38.866;2022-09-21T04:54:26;46.6;;;7.9;;
28455;SDS011;15682;56.742;38.866;2022-09-21T04:56:26;29.0;;;6.6;;
28455;SDS011;15682;56.742;38.866;2022-09-21T04:58:26;26.4;;;7.1;;
28455;SDS011;15682;56.742;38.866;2022-09-21T05:00:26;24.6;;;6.2;;
28455;SDS011;15682;56.742;38.866;2022-09-21T05:02:26;51.7;;;6.9;;
28455;SDS011;15682;56.742;38.866;2022-09-21T05:04:26;72.3;;;8.2;;
28455;SDS011;15682;56.742;38.866;2022-09-21T05:06:26;82.9;;;7.7;;
28455;SDS011;15682;56.742;38.866;2022-09-21T05:08:26;70.9;;;7.1;;
28455;SDS011;15682;56.742;38.866;2022-09-21T05:10:26;117.9;;;11.4;;
28455;SDS011;15682;56.742;38.866;2022-09-21T05:12:27;96.5;;;11.1;;
28455;SDS011;15682;56.742;38.866;2022-09-21T05:14:27;116.7;;;9.5;;
28455;SDS011;15682;56.742;38.866;2022-09-21T05:16:27;105.8;;;10.9;;
28455;SDS011;15682;56.742;38.866;2022-09-21T05:18:27;77.8;;;8.5;;
28455;SDS011;15682;56.742;38.866;2022-09-21T05:20:27;54.1;;;8.7;;
28455;SDS011;15682;56.742;38.866;2022-09-21T05:22:27;114.5;;;9.9;;
28455;SDS011;15682;56.742;38.866;2022-09-21T05:24:27;117.4;;;11.1;;
28455;SDS011;15682;56.742;38.866;2022-09-21T05:26:27;111.0;;;10.1;;
28455;SDS011;15682;56.742;38.866;2022-09-21T05:28:28;160.0;;;10.1;;
28455;SDS011;15682;56.742;38.866;2022-09-21T05:30:28;144.7;;;11.3;;
28455;SDS011;15682;56.742;38.866;2022-09-21T05:32:29;152.2;;;16.3;;
28455;SDS011;15682;56.742;38.866;2022-09-21T05:34:31;207.0;;;37.8;;
28455;SDS011;15682;56.742;38.866;2022-09-21T05:36:31;235.4;;;44.7;;
28455;SDS011;15682;56.742;38.866;2022-09-21T05:38:28;280.0;;;50.3;;
28455;SDS011;15682;56.742;38.866;2022-09-21T05:40:28;300.0;;;52.8;;
28455;SDS011;15682;56.742;38.866;2022-09-21T05:42:28;271.1;;;49.9;;
28455;SDS011;15682;56.742;38.866;2022-09-21T05:44:29;197.8;;;45.4;;
28455;SDS011;15682;56.742;38.866;2022-09-21T05:46:31;207.8;;;42.5;;
28455;SDS011;15682;56.742;38.866;2022-09-21T05:48:30;213.5;;;43.8;;
28455;SDS011;15682;56.742;38.866;2022-09-21T05:50:32;185.1;;;41.9;;
28455;SDS011;15682;56.742;38.866;2022-09-21T05:52:30;169.0;;;40.4;;
28455;SDS011;15682;56.742;38.866;2022-09-21T05:54:32;206.8;;;37.2;;
28455;SDS011;15682;56.742;38.866;2022-09-21T05:56:31;162.6;;;34.4;;
28455;SDS011;15682;56.742;38.866;2022-09-21T05:58:32;146.1;;;32.4;;
28455;SDS011;15682;56.742;38.866;2022-09-21T06:00:30;121.9;;;27.7;;
28455;SDS011;15682;56.742;38.866;2022-09-21T06:02:39;105.7;;;23.3;;
28455;SDS011;15682;56.742;38.866;2022-09-21T06:04:30;105.7;;;23.0;;
28455;SDS011;15682;56.742;38.866;2022-09-21T06:06:29;92.4;;;18.7;;
28455;SDS011;15682;56.742;38.866;2022-09-21T06:08:30;89.3;;;21.5;;
28455;SDS011;15682;56.742;38.866;2022-09-21T06:10:31;75.8;;;16.5;;
28455;SDS011;15682;56.742;38.866;2022-09-21T06:12:30;90.5;;;23.8;;
28455;SDS011;15682;56.742;38.866;2022-09-21T06:14:30;81.7;;;21.0;;
28455;SDS011;15682;56.742;38.866;2022-09-21T06:16:35;84.2;;;21.3;;
28455;SDS011;15682;56.742;38.866;2022-09-21T06:18:30;77.3;;;18.7;;
28455;SDS011;15682;56.742;38.866;2022-09-21T06:20:31;23.6;;;7.4;;
28455;SDS011;15682;56.742;38.866;2022-09-21T06:22:31;11.0;;;5.1;;
28455;SDS011;15682;56.742;38.866;2022-09-21T06:24:31;12.0;;;5.3;;
28455;SDS011;15682;56.742;38.866;2022-09-21T06:26:31;10.1;;;4.8;;
28455;SDS011;15682;56.742;38.866;2022-09-21T06:28:31;7.2;;;4.6;;
28455;SDS011;15682;56.742;38.866;2022-09-21T06:30:32;7.3;;;4.9;;
28455;SDS011;15682;56.742;38.866;2022-09-21T06:32:32;12.0;;;6.5;;
28455;SDS011;15682;56.742;38.866;2022-09-21T06:34:32;12.1;;;6.8;;
28455;SDS011;15682;56.742;38.866;2022-09-21T06:36:32;34.6;;;15.7;;
28455;SDS011;15682;56.742;38.866;2022-09-21T06:38:32;14.6;;;8.3;;
28455;SDS011;15682;56.742;38.866;2022-09-21T06:40:33;6.6;;;3.9;;
28455;SDS011;15682;56.742;38.866;2022-09-21T06:42:33;7.8;;;3.3;;
28455;SDS011;15682;56.742;38.866;2022-09-21T06:44:33;10.8;;;4.6;;
28455;SDS011;15682;56.742;38.866;2022-09-21T06:46:33;8.9;;;3.6;;
28455;SDS011;15682;56.742;38.866;2022-09-21T06:48:33;9.0;;;3.6;;
28455;SDS011;15682;56.742;38.866;2022-09-21T06:50:33;4.6;;;2.8;;
28455;SDS011;15682;56.742;38.866;2022-09-21T06:52:34;6.7;;;2.8;;
28455;SDS011;15682;56.742;38.866;2022-09-21T06:54:34;7.1;;;2.6;;
28455;SDS011;15682;56.742;38.866;2022-09-21T06:56:34;9.8;;;2.7;;
28455;SDS011;15682;56.742;38.866;2022-09-21T06:58:34;4.7;;;2.5;;
28455;SDS011;15682;56.742;38.866;2022-09-21T07:00:34;7.2;;;2.7;;
28455;SDS011;15682;56.742;38.866;2022-09-21T07:02:35;8.4;;;2.7;;
28455;SDS011;15682;56.742;38.866;2022-09-21T07:04:35;8.0;;;3.4;;
28455;SDS011;15682;56.742;38.866;2022-09-21T07:06:35;16.6;;;4.3;;
28455;SDS011;15682;56.742;38.866;2022-09-21T07:08:35;22.0;;;4.5;;
28455;SDS011;15682;56.742;38.866;2022-09-21T07:10:35;44.1;;;5.8;;
28455;SDS011;15682;56.742;38.866;2022-09-21T07:12:36;33.9;;;5.6;;
28455;SDS011;15682;56.742;38.866;2022-09-21T07:14:36;44.3;;;5.6;;
28455;SDS011;15682;56.742;38.866;2022-09-21T07:16:36;33.1;;;5.8;;
28455;SDS011;15682;56.742;38.866;2022-09-21T07:18:36;14.8;;;3.7;;
28455;SDS011;15682;56.742;38.866;2022-09-21T07:20:36;13.2;;;3.4;;
28455;SDS011;15682;56.742;38.866;2022-09-21T07:22:37;10.9;;;3.3;;
28455;SDS011;15682;56.742;38.866;2022-09-21T07:24:37;8.7;;;3.0;;
28455;SDS011;15682;56.742;38.866;2022-09-21T07:26:37;9.3;;;2.5;;
28455;SDS011;15682;56.742;38.866;2022-09-21T07:28:37;11.9;;;7.2;;
28455;SDS011;15682;56.742;38.866;2022-09-21T07:30:38;9.5;;;5.5;;
28455;SDS011;15682;56.742;38.866;2022-09-21T07:32:38;2.6;;;2.1;;
28455;SDS011;15682;56.742;38.866;2022-09-21T07:34:38;8.4;;;3.1;;
28455;SDS011;15682;56.742;38.866;2022-09-21T07:36:38;8.2;;;3.5;;
28455;SDS011;15682;56.742;38.866;2022-09-21T07:38:39;6.5;;;2.2;;
28455;SDS011;15682;56.742;38.866;2022-09-21T07:40:38;7.4;;;1.7;;
28455;SDS011;15682;56.742;38.866;2022-09-21T07:42:39;3.8;;;1.9;;
28455;SDS011;15682;56.742;38.866;2022-09-21T07:44:39;5.3;;;1.7;;
28455;SDS011;15682;56.742;38.866;2022-09-21T07:46:39;4.4;;;1.9;;
28455;SDS011;15682;56.742;38.866;2022-09-21T07:48:39;2.5;;;1.5;;
28455;SDS011;15682;56.742;38.866;2022-09-21T07:50:39;3.9;;;1.7;;
28455;SDS011;15682;56.742;38.866;2022-09-21T07:52:40;8.0;;;1.7;;
28455;SDS011;15682;56.742;38.866;2022-09-21T07:54:40;6.0;;;2.2;;
28455;SDS011;15682;56.742;38.866;2022-09-21T07:56:40;4.2;;;1.7;;
28455;SDS011;15682;56.742;38.866;2022-09-21T07:58:40;6.8;;;2.3;;
28455;SDS011;15682;56.742;38.866;2022-09-21T08:00:41;6.9;;;1.7;;
28455;SDS011;15682;56.742;38.866;2022-09-21T08:02:41;5.2;;;1.4;;
28455;SDS011;15682;56.742;38.866;2022-09-21T08:04:41;5.1;;;2.9;;
28455;SDS011;15682;56.742;38.866;2022-09-21T08:06:41;10.1;;;3.8;;
28455;SDS011;15682;56.742;38.866;2022-09-21T08:08:41;4.9;;;2.1;;
28455;SDS011;15682;56.742;38.866;2022-09-21T08:10:42;6.0;;;2.2;;
28455;SDS011;15682;56.742;38.866;2022-09-21T08:12:42;4.6;;;2.6;;
28455;SDS011;15682;56.742;38.866;2022-09-21T08:14:42;7.6;;;2.3;;
28455;SDS011;15682;56.742;38.866;2022-09-21T08:16:42;6.0;;;2.1;;
28455;SDS011;15682;56.742;38.866;2022-09-21T08:18:43;11.5;;;2.2;;
28455;SDS011;15682;56.742;38.866;2022-09-21T08:20:43;3.7;;;2.1;;
28455;SDS011;15682;56.742;38.866;2022-09-21T08:22:43;3.8;;;1.5;;
28455;SDS011;15682;56.742;38.866;2022-09-21T08:24:43;5.4;;;1.6;;
28455;SDS011;15682;56.742;38.866;2022-09-21T08:26:43;4.6;;;1.7;;
28455;SDS011;15682;56.742;38.866;2022-09-21T08:28:44;5.1;;;1.5;;
28455;SDS011;15682;56.742;38.866;2022-09-21T08:30:44;9.0;;;2.0;;
28455;SDS011;15682;56.742;38.866;2022-09-21T08:32:44;11.5;;;6.5;;
28455;SDS011;15682;56.742;38.866;2022-09-21T08:34:44;5.4;;;1.8;;
28455;SDS011;15682;56.742;38.866;2022-09-21T08:36:45;4.8;;;1.4;;
28455;SDS011;15682;56.742;38.866;2022-09-21T08:38:45;3.3;;;1.5;;
28455;SDS011;15682;56.742;38.866;2022-09-21T08:40:45;7.2;;;1.3;;
28455;SDS011;15682;56.742;38.866;2022-09-21T08:42:47;2.8;;;1.4;;
28455;SDS011;15682;56.742;38.866;2022-09-21T08:44:47;5.8;;;1.6;;
28455;SDS011;15682;56.742;38.866;2022-09-21T08:46:47;4.1;;;1.5;;
28455;SDS011;15682;56.742;38.866;2022-09-21T08:48:47;5.5;;;1.7;;
28455;SDS011;15682;56.742;38.866;2022-09-21T08:50:47;7.9;;;1.8;;
28455;SDS011;15682;56.742;38.866;2022-09-21T08:52:47;5.5;;;1.5;;
28455;SDS011;15682;56.742;38.866;2022-09-21T08:54:48;3.7;;;1.8;;
28455;SDS011;15682;56.742;38.866;2022-09-21T08:56:47;3.5;;;1.6;;
28455;SDS011;15682;56.742;38.866;2022-09-21T08:58:47;5.5;;;1.8;;
28455;SDS011;15682;56.742;38.866;2022-09-21T09:00:48;5.2;;;1.6;;
28455;SDS011;15682;56.742;38.866;2022-09-21T09:02:58;7.8;;;1.8;;
28455;SDS011;15682;56.742;38.866;2022-09-21T09:04:49;3.5;;;1.5;;
28455;SDS011;15682;56.742;38.866;2022-09-21T09:06:50;5.7;;;1.4;;
28455;SDS011;15682;56.742;38.866;2022-09-21T09:08:51;4.3;;;1.2;;
28455;SDS011;15682;56.742;38.866;2022-09-21T09:10:52;6.4;;;1.4;;
28455;SDS011;15682;56.742;38.866;2022-09-21T09:12:53;4.8;;;1.5;;
28455;SDS011;15682;56.742;38.866;2022-09-21T09:14:57;4.1;;;1.4;;
28455;SDS011;15682;56.742;38.866;2022-09-21T09:16:52;7.9;;;1.2;;
28455;SDS011;15682;56.742;38.866;2022-09-21T09:18:50;2.0;;;1.1;;
28455;SDS011;15682;56.742;38.866;2022-09-21T09:20:52;2.9;;;1.2;;
28455;SDS011;15682;56.742;38.866;2022-09-21T09:22:52;6.1;;;1.4;;
28455;SDS011;15682;56.742;38.866;2022-09-21T09:24:51;3.3;;;1.2;;
28455;SDS011;15682;56.742;38.866;2022-09-21T09:26:51;6.1;;;1.3;;
28455;SDS011;15682;56.742;38.866;2022-09-21T09:28:52;3.5;;;1.0;;
28455;SDS011;15682;56.742;38.866;2022-09-21T09:30:54;5.1;;;1.0;;
28455;SDS011;15682;56.742;38.866;2022-09-21T09:32:53;4.2;;;1.2;;
28455;SDS011;15682;56.742;38.866;2022-09-21T09:34:52;5.3;;;1.2;;
28455;SDS011;15682;56.742;38.866;2022-09-21T09:36:55;2.3;;;1.1;;
28455;SDS011;15682;56.742;38.866;2022-09-21T09:38:54;3.3;;;1.0;;
28455;SDS011;15682;56.742;38.866;2022-09-21T09:40:56;3.1;;;1.0;;
28455;SDS011;15682;56.742;38.866;2022-09-21T09:42:54;4.4;;;1.0;;
28455;SDS011;15682;56.742;38.866;2022-09-21T09:44:57;5.3;;;1.5;;
28455;SDS011;15682;56.742;38.866;2022-09-21T09:46:56;2.2;;;1.1;;
28455;SDS011;15682;56.742;38.866;2022-09-21T09:49:03;2.9;;;1.3;;
28455;SDS011;15682;56.742;38.866;2022-09-21T09:50:53;2.8;;;1.2;;
28455;SDS011;15682;56.742;38.866;2022-09-21T09:52:55;5.1;;;1.1;;
28455;SDS011;15682;56.742;38.866;2022-09-21T09:54:54;2.1;;;1.1;;
28455;SDS011;15682;56.742;38.866;2022-09-21T09:56:54;3.8;;;1.1;;
28455;SDS011;15682;56.742;38.866;2022-09-21T09:58:55;4.9;;;1.3;;
28455;SDS011;15682;56.742;38.866;2022-09-21T10:00:55;4.3;;;1.2;;
28455;SDS011;15682;56.742;38.866;2022-09-21T10:02:55;3.6;;;1.1;;
28455;SDS011;15682;56.742;38.866;2022-09-21T10:04:56;6.1;;;1.0;;
28455;SDS011;15682;56.742;38.866;2022-09-21T10:06:55;3.6;;;1.5;;
28455;SDS011;15682;56.742;38.866;2022-09-21T10:08:56;5.2;;;1.3;;
28455;SDS011;15682;56.742;38.866;2022-09-21T10:10:56;2.7;;;1.3;;
28455;SDS011;15682;56.742;38.866;2022-09-21T10:13:03;7.2;;;1.3;;
28455;SDS011;15682;56.742;38.866;2022-09-21T10:14:57;3.8;;;1.1;;
28455;SDS011;15682;56.742;38.866;2022-09-21T10:16:58;3.2;;;1.2;;
28455;SDS011;15682;56.742;38.866;2022-09-21T10:18:57;6.7;;;1.6;;
28455;SDS011;15682;56.742;38.866;2022-09-21T10:20:59;5.7;;;1.6;;
28455;SDS011;15682;56.742;38.866;2022-09-21T10:22:58;5.6;;;1.2;;
28455;SDS011;15682;56.742;38.866;2022-09-21T10:24:58;5.0;;;1.6;;
28455;SDS011;15682;56.742;38.866;2022-09-21T10:27:02;8.1;;;1.4;;
28455;SDS011;15682;56.742;38.866;2022-09-21T10:28:59;4.7;;;1.2;;
28455;SDS011;15682;56.742;38.866;2022-09-21T10:31:07;4.8;;;1.2;;
28455;SDS011;15682;56.742;38.866;2022-09-21T10:32:59;5.3;;;1.5;;
28455;SDS011;15682;56.742;38.866;2022-09-21T10:35:10;5.6;;;1.5;;
28455;SDS011;15682;56.742;38.866;2022-09-21T10:37:00;3.5;;;1.2;;
28455;SDS011;15682;56.742;38.866;2022-09-21T10:41:00;3.7;;;1.1;;
28455;SDS011;15682;56.742;38.866;2022-09-21T10:43:00;6.1;;;1.1;;
28455;SDS011;15682;56.742;38.866;2022-09-21T10:45:05;2.4;;;1.0;;
28455;SDS011;15682;56.742;38.866;2022-09-21T10:47:02;4.2;;;1.1;;
28455;SDS011;15682;56.742;38.866;2022-09-21T10:49:01;5.4;;;1.2;;
28455;SDS011;15682;56.742;38.866;2022-09-21T10:51:01;5.9;;;1.2;;
28455;SDS011;15682;56.742;38.866;2022-09-21T10:53:10;3.3;;;1.1;;
28455;SDS011;15682;56.742;38.866;2022-09-21T10:55:02;5.9;;;1.5;;
28455;SDS011;15682;56.742;38.866;2022-09-21T10:57:03;4.1;;;1.5;;
28455;SDS011;15682;56.742;38.866;2022-09-21T10:59:11;5.3;;;1.5;;
28455;SDS011;15682;56.742;38.866;2022-09-21T11:01:09;8.9;;;1.5;;
28455;SDS011;15682;56.742;38.866;2022-09-21T11:03:25;5.2;;;1.5;;
28455;SDS011;15682;56.742;38.866;2022-09-21T11:05:07;5.2;;;1.5;;
28455;SDS011;15682;56.742;38.866;2022-09-21T11:07:06;6.2;;;2.1;;
28455;SDS011;15682;56.742;38.866;2022-09-21T11:09:05;4.0;;;1.6;;
28455;SDS011;15682;56.742;38.866;2022-09-21T11:11:08;5.2;;;1.2;;
28455;SDS011;15682;56.742;38.866;2022-09-21T11:13:09;6.8;;;1.7;;
28455;SDS011;15682;56.742;38.866;2022-09-21T11:15:10;4.5;;;1.5;;
28455;SDS011;15682;56.742;38.866;2022-09-21T11:17:07;3.5;;;1.2;;
28455;SDS011;15682;56.742;38.866;2022-09-21T11:19:07;4.7;;;1.4;;
28455;SDS011;15682;56.742;38.866;2022-09-21T11:21:08;5.2;;;1.4;;
28455;SDS011;15682;56.742;38.866;2022-09-21T11:23:10;1.6;;;1.0;;
28455;SDS011;15682;56.742;38.866;2022-09-21T11:25:13;6.1;;;1.5;;
28455;SDS011;15682;56.742;38.866;2022-09-21T11:27:08;5.3;;;1.5;;
28455;SDS011;15682;56.742;38.866;2022-09-21T11:29:08;4.6;;;1.4;;
28455;SDS011;15682;56.742;38.866;2022-09-21T11:31:13;2.8;;;1.5;;
28455;SDS011;15682;56.742;38.866;2022-09-21T11:33:11;5.3;;;1.7;;
28455;SDS011;15682;56.742;38.866;2022-09-21T11:35:17;7.4;;;2.1;;
28455;SDS011;15682;56.742;38.866;2022-09-21T11:37:11;3.2;;;1.8;;
28455;SDS011;15682;56.742;38.866;2022-09-21T11:39:09;3.8;;;1.6;;
28455;SDS011;15682;56.742;38.866;2022-09-21T11:41:12;4.1;;;1.3;;
28455;SDS011;15682;56.742;38.866;2022-09-21T11:43:14;4.0;;;1.1;;
28455;SDS011;15682;56.742;38.866;2022-09-21T11:45:12;3.9;;;1.4;;
28455;SDS011;15682;56.742;38.866;2022-09-21T11:47:12;4.7;;;1.5;;
28455;SDS011;15682;56.742;38.866;2022-09-21T11:49:15;7.1;;;1.7;;
28455;SDS011;15682;56.742;38.866;2022-09-21T11:51:16;5.3;;;2.1;;
28455;SDS011;15682;56.742;38.866;2022-09-21T11:53:14;8.1;;;1.7;;
28455;SDS011;15682;56.742;38.866;2022-09-21T11:55:21;4.8;;;1.4;;
28455;SDS011;15682;56.742;38.866;2022-09-21T11:57:12;6.9;;;1.5;;
28455;SDS011;15682;56.742;38.866;2022-09-21T11:59:16;4.1;;;1.3;;
28455;SDS011;15682;56.742;38.866;2022-09-21T12:01:14;3.0;;;1.3;;
28455;SDS011;15682;56.742;38.866;2022-09-21T12:03:27;4.0;;;1.3;;
28455;SDS011;15682;56.742;38.866;2022-09-21T12:05:14;2.7;;;1.2;;
28455;SDS011;15682;56.742;38.866;2022-09-21T12:07:15;3.7;;;1.4;;
28455;SDS011;15682;56.742;38.866;2022-09-21T12:09:18;7.7;;;1.5;;